Time;durP1;ratioP1;P1;durP2;ratioP2;P2;SDS_P1;SDS_P2;PMS_P1;PMS_P2;Temp;Humidity;BMP_temperature;BMP_pressure;BME280_temperature;BME280_humidity;BME280_pressure;Samples;Min_cycle;Max_cycle;Signal;HPM_P1;HPM_P2
2024/04/11 00:00:29;;;;;;;26.67;22.33;;;3.90;99.90;;;;;;5378123;26;20039;-71
2024/04/11 00:02:57;;;;;;;23.15;21.13;;;3.90;99.90;;;;;;5384584;26;20000;-72
2024/04/11 00:05:25;;;;;;;23.85;21.35;;;4.00;99.90;;;;;;5349343;26;20022;-71
2024/04/11 00:07:52;;;;;;;24.27;21.80;;;4.00;99.90;;;;;;5385555;26;20014;-71
2024/04/11 00:10:19;;;;;;;23.42;21.02;;;3.90;99.90;;;;;;5388064;26;19995;-71
2024/04/11 00:12:46;;;;;;;23.15;21.15;;;3.90;99.90;;;;;;5389052;26;20778;-72
2024/04/11 00:15:14;;;;;;;23.83;21.45;;;4.00;99.90;;;;;;5384686;26;20515;-71
2024/04/11 00:17:44;;;;;;;23.83;21.48;;;4.00;99.90;;;;;;5386114;26;19999;-71
2024/04/11 00:20:11;;;;;;;24.52;21.80;;;3.90;99.90;;;;;;5371576;26;20070;-72
2024/04/11 00:22:38;;;;;;;24.00;21.73;;;3.90;99.90;;;;;;5391305;26;20052;-72
2024/04/11 00:25:05;;;;;;;23.30;21.02;;;3.70;99.90;;;;;;5382665;26;20023;-71
2024/04/11 00:27:33;;;;;;;24.42;21.98;;;3.80;99.90;;;;;;5373016;26;19999;-71
2024/04/11 00:30:02;;;;;;;24.27;21.48;;;3.80;99.90;;;;;;5385682;26;20773;-72
2024/04/11 00:32:30;;;;;;;22.85;20.55;;;3.80;99.90;;;;;;5379302;26;20018;-72
2024/04/11 00:34:57;;;;;;;24.73;21.90;;;3.90;99.90;;;;;;5331213;26;20070;-71
2024/04/11 00:37:25;;;;;;;23.83;21.67;;;3.80;99.90;;;;;;5378156;26;20086;-72
2024/04/11 00:39:53;;;;;;;24.45;21.77;;;3.70;99.90;;;;;;5390065;26;20058;-71
2024/04/11 00:42:20;;;;;;;22.83;20.83;;;3.70;99.90;;;;;;5374247;26;20077;-72
2024/04/11 00:44:48;;;;;;;22.75;20.42;;;3.70;99.90;;;;;;5386217;26;20012;-71
2024/04/11 00:47:16;;;;;;;25.80;20.80;;;3.80;99.90;;;;;;5380335;26;20023;-69
2024/04/11 00:49:44;;;;;;;24.60;21.98;;;3.80;99.90;;;;;;5384101;26;20010;-72
2024/04/11 00:52:13;;;;;;;23.10;21.13;;;3.80;99.90;;;;;;5331115;26;20445;-69
2024/04/11 00:54:41;;;;;;;23.20;21.02;;;3.80;99.90;;;;;;5354871;26;21157;-72
2024/04/11 00:57:08;;;;;;;22.65;20.55;;;3.70;99.90;;;;;;5381997;26;20052;-72
2024/04/11 00:59:38;;;;;;;23.52;19.58;;;3.80;99.90;;;;;;5379339;26;20108;-72
2024/04/11 01:02:10;;;;;;;22.45;20.35;;;3.60;99.90;;;;;;5353470;26;20004;-71
2024/04/11 01:04:38;;;;;;;21.88;19.73;;;3.60;99.90;;;;;;5366095;26;20305;-71
2024/04/11 01:07:11;;;;;;;21.60;19.70;;;3.70;99.90;;;;;;5388403;26;20007;-71
2024/04/11 01:09:46;;;;;;;21.80;19.60;;;3.70;99.90;;;;;;5381131;26;23316;-71
2024/04/11 01:12:16;;;;;;;24.88;20.27;;;3.70;99.90;;;;;;5380843;26;20033;-72
2024/04/11 01:14:50;;;;;;;21.13;18.92;;;3.70;99.90;;;;;;5387274;26;20013;-72
2024/04/11 01:17:21;;;;;;;22.23;19.17;;;3.80;99.90;;;;;;5381011;26;19999;-72
2024/04/11 01:19:49;;;;;;;21.60;19.20;;;3.80;99.90;;;;;;5384194;26;20013;-72
2024/04/11 01:22:18;;;;;;;21.15;18.88;;;3.80;99.90;;;;;;5388350;26;20069;-71
2024/04/11 01:24:47;;;;;;;19.63;17.63;;;3.70;99.90;;;;;;5384723;26;20011;-72
2024/04/11 01:27:15;;;;;;;20.35;18.35;;;3.60;99.90;;;;;;5380708;26;20007;-73
2024/04/11 01:29:42;;;;;;;20.60;18.83;;;3.70;99.90;;;;;;5373770;26;20080;-72
2024/04/11 01:32:09;;;;;;;21.75;19.73;;;3.70;99.90;;;;;;5383996;26;20666;-72
2024/04/11 01:34:36;;;;;;;21.23;19.27;;;3.80;99.90;;;;;;5367506;26;19999;-72
2024/04/11 01:37:06;;;;;;;27.00;19.65;;;3.90;99.90;;;;;;5387899;26;20010;-72
2024/04/11 01:39:33;;;;;;;21.02;19.17;;;3.90;99.90;;;;;;5376790;26;21431;-72
2024/04/11 01:42:00;;;;;;;20.55;18.85;;;3.80;99.90;;;;;;5395423;26;20002;-73
2024/04/11 01:44:34;;;;;;;20.35;18.25;;;3.90;99.90;;;;;;5378620;26;20018;-73
2024/04/11 01:47:03;;;;;;;20.30;18.15;;;4.00;99.90;;;;;;5387883;26;19995;-72
2024/04/11 01:49:31;;;;;;;22.58;18.85;;;4.20;99.90;;;;;;5394812;26;20097;-73
2024/04/11 01:51:59;;;;;;;20.63;18.75;;;4.20;99.90;;;;;;5376021;26;20011;-72
2024/04/11 01:54:26;;;;;;;21.13;19.08;;;4.30;99.90;;;;;;5379546;26;20130;-70
2024/04/11 01:56:53;;;;;;;20.35;18.80;;;4.30;99.90;;;;;;5389092;26;20015;-73
2024/04/11 01:59:21;;;;;;;21.85;19.85;;;4.40;99.90;;;;;;5356171;26;20015;-72
2024/04/11 02:01:48;;;;;;;20.90;19.17;;;4.40;99.90;;;;;;5378705;26;20105;-73
2024/04/11 02:04:16;;;;;;;20.40;18.27;;;4.40;99.90;;;;;;5388592;26;20747;-72
2024/04/11 02:06:46;;;;;;;19.52;17.95;;;4.50;99.90;;;;;;5382147;26;21486;-71
2024/04/11 02:09:16;;;;;;;20.65;18.90;;;4.60;99.90;;;;;;5395201;26;20002;-71
2024/04/11 02:11:47;;;;;;;21.00;18.63;;;4.60;99.90;;;;;;5380793;26;20667;-70
2024/04/11 02:14:16;;;;;;;19.10;17.67;;;4.40;99.90;;;;;;5383264;26;20007;-72
2024/04/11 02:16:44;;;;;;;20.80;17.85;;;4.50;99.90;;;;;;5379207;26;20007;-72
2024/04/11 02:19:12;;;;;;;19.52;17.80;;;4.50;99.90;;;;;;5372397;26;20007;-71
2024/04/11 02:21:43;;;;;;;20.33;18.20;;;4.60;99.90;;;;;;5379048;26;20003;-72
2024/04/11 02:24:18;;;;;;;19.85;18.20;;;4.60;99.90;;;;;;5402134;26;20079;-72
2024/04/11 02:26:47;;;;;;;20.08;18.23;;;4.50;99.90;;;;;;5381202;26;20030;-73
2024/04/11 02:29:16;;;;;;;20.15;18.65;;;4.50;99.90;;;;;;5379506;26;20662;-72
2024/04/11 02:31:46;;;;;;;20.70;18.92;;;4.50;99.90;;;;;;5399219;26;20010;-72
2024/04/11 02:34:13;;;;;;;20.30;18.08;;;4.50;99.90;;;;;;5375638;26;20716;-72
2024/04/11 02:36:41;;;;;;;19.02;17.63;;;4.40;99.90;;;;;;5385353;26;19999;-72
2024/04/11 02:39:12;;;;;;;20.33;18.58;;;4.60;99.90;;;;;;5354577;26;20102;-71
2024/04/11 02:41:41;;;;;;;19.63;18.08;;;4.70;99.90;;;;;;5397329;26;20006;-73
2024/04/11 02:44:09;;;;;;;21.65;19.55;;;4.80;99.90;;;;;;5390553;26;20070;-72
2024/04/11 02:46:36;;;;;;;20.13;18.63;;;4.80;99.90;;;;;;5430973;26;20018;-71
2024/04/11 02:49:05;;;;;;;20.02;18.20;;;4.80;99.90;;;;;;5389293;26;20018;-72
2024/04/11 02:51:34;;;;;;;20.35;18.40;;;4.80;99.90;;;;;;5380828;26;20047;-70
2024/04/11 02:54:05;;;;;;;19.85;18.25;;;4.90;99.90;;;;;;5382860;26;20092;-71
2024/04/11 02:56:41;;;;;;;20.83;18.80;;;4.90;99.90;;;;;;5394799;26;20000;-72
2024/04/11 02:59:11;;;;;;;20.33;18.58;;;5.00;99.90;;;;;;5373963;26;20018;-72
2024/04/11 03:01:38;;;;;;;19.85;18.20;;;5.10;99.90;;;;;;5372613;26;20329;-73
2024/04/11 03:04:05;;;;;;;21.02;19.08;;;5.10;99.90;;;;;;5385152;26;20003;-71
2024/04/11 03:06:32;;;;;;;21.88;19.77;;;5.10;99.90;;;;;;5388232;26;20000;-71
2024/04/11 03:09:01;;;;;;;20.73;18.65;;;5.00;99.90;;;;;;5400892;26;20072;-71
2024/04/11 03:11:29;;;;;;;20.92;18.65;;;4.80;99.90;;;;;;5383665;26;20015;-73
2024/04/11 03:13:57;;;;;;;19.80;18.38;;;4.90;99.90;;;;;;5356166;26;20180;-74
2024/04/11 03:16:30;;;;;;;20.45;18.55;;;4.80;99.90;;;;;;5388023;26;20018;-73
2024/04/11 03:18:58;;;;;;;20.30;18.63;;;4.70;99.90;;;;;;5390907;26;20845;-72
2024/04/11 03:21:25;;;;;;;20.83;19.13;;;4.80;99.90;;;;;;5379167;26;20080;-74
2024/04/11 03:23:53;;;;;;;19.77;18.13;;;4.80;99.90;;;;;;5376341;26;20019;-73
2024/04/11 03:26:20;;;;;;;20.63;19.10;;;4.80;99.90;;;;;;5388516;26;20010;-71
2024/04/11 03:28:47;;;;;;;20.55;18.80;;;4.80;99.90;;;;;;5382080;26;20007;-73
2024/04/11 03:31:18;;;;;;;20.33;18.67;;;4.80;99.90;;;;;;5396111;26;20462;-72
2024/04/11 03:33:46;;;;;;;21.73;18.77;;;4.90;99.90;;;;;;5406973;26;20053;-72
2024/04/11 03:36:14;;;;;;;18.83;17.52;;;5.00;99.90;;;;;;5410864;26;20011;-72
2024/04/11 03:38:41;;;;;;;20.48;18.48;;;5.00;99.90;;;;;;5376995;26;20027;-70
2024/04/11 03:41:10;;;;;;;20.40;18.65;;;5.10;99.90;;;;;;5398270;26;19999;-72
2024/04/11 03:43:39;;;;;;;20.52;18.98;;;5.20;99.90;;;;;;5379106;26;19998;-72
2024/04/11 03:46:10;;;;;;;21.10;19.33;;;5.10;99.90;;;;;;5395523;26;20007;-72
2024/04/11 03:48:38;;;;;;;20.42;19.00;;;5.10;99.90;;;;;;5386718;26;20000;-72
2024/04/11 03:51:14;;;;;;;20.40;18.75;;;5.10;99.90;;;;;;5384226;26;20008;-72
2024/04/11 03:53:41;;;;;;;20.60;18.98;;;5.10;99.90;;;;;;5384969;26;20004;-71
2024/04/11 03:56:10;;;;;;;20.63;18.75;;;5.10;99.90;;;;;;5382476;26;20003;-69
2024/04/11 03:58:37;;;;;;;21.00;18.90;;;5.20;99.90;;;;;;5410174;26;20008;-69
2024/04/11 04:01:15;;;;;;;20.42;18.83;;;5.20;99.90;;;;;;5416397;26;19996;-72
2024/04/11 04:03:43;;;;;;;20.40;18.60;;;5.20;99.90;;;;;;5361154;26;20015;-72
2024/04/11 04:06:13;;;;;;;21.20;19.33;;;5.00;99.90;;;;;;5379778;26;20003;-71
2024/04/11 04:08:40;;;;;;;20.33;18.90;;;5.10;99.90;;;;;;5375960;26;20497;-72
2024/04/11 04:11:14;;;;;;;20.88;19.05;;;5.10;99.90;;;;;;5398137;26;19998;-71
2024/04/11 04:13:42;;;;;;;20.65;19.17;;;5.20;99.90;;;;;;5386753;26;20013;-71
2024/04/11 04:16:16;;;;;;;21.80;20.05;;;5.10;99.90;;;;;;5384547;26;20012;-70
2024/04/11 04:18:50;;;;;;;20.75;19.00;;;5.30;99.90;;;;;;5365921;26;20036;-72
2024/04/11 04:21:26;;;;;;;20.15;18.30;;;5.30;99.90;;;;;;5386027;26;20455;-72
2024/04/11 04:23:55;;;;;;;20.73;19.02;;;5.20;99.90;;;;;;5381716;26;20026;-71
2024/04/11 04:26:30;;;;;;;22.00;19.98;;;5.20;99.90;;;;;;5377334;26;20856;-72
2024/04/11 04:28:58;;;;;;;21.05;19.50;;;5.20;99.90;;;;;;5376460;26;20415;-73
2024/04/11 04:31:30;;;;;;;19.20;17.70;;;5.30;99.90;;;;;;5399472;26;20035;-74
2024/04/11 04:33:59;;;;;;;19.77;18.15;;;5.40;99.90;;;;;;5389075;26;20007;-73
2024/04/11 04:36:33;;;;;;;20.02;18.27;;;5.70;99.90;;;;;;5374929;26;20007;-73
2024/04/11 04:39:04;;;;;;;20.10;18.30;;;6.00;99.90;;;;;;5387199;26;20002;-73
2024/04/11 04:41:39;;;;;;;22.13;20.00;;;6.20;99.90;;;;;;5386343;26;20668;-73
2024/04/11 04:44:07;;;;;;;28.95;26.63;;;6.40;99.90;;;;;;5382516;26;20047;-73
2024/04/11 04:46:34;;;;;;;22.75;21.13;;;6.40;99.90;;;;;;5376089;26;20042;-73
2024/04/11 04:49:09;;;;;;;23.88;21.98;;;6.60;99.90;;;;;;5385789;26;21886;-72
2024/04/11 04:51:39;;;;;;;24.33;22.25;;;6.70;99.90;;;;;;5389224;26;19999;-72
2024/04/11 04:54:13;;;;;;;23.52;21.13;;;6.70;99.90;;;;;;5393059;26;20015;-74
2024/04/11 04:56:43;;;;;;;27.85;25.98;;;6.80;99.90;;;;;;5403153;26;20047;-73
2024/04/11 04:59:12;;;;;;;28.60;26.67;;;6.80;99.90;;;;;;5381855;26;20003;-72
2024/04/11 05:01:40;;;;;;;28.73;26.92;;;6.90;99.90;;;;;;5380545;26;19999;-73
2024/04/11 05:04:13;;;;;;;27.85;25.90;;;7.00;99.90;;;;;;5358570;26;19996;-73
2024/04/11 05:06:43;;;;;;;27.10;25.27;;;7.10;99.90;;;;;;5384656;26;20003;-73
2024/04/11 05:09:10;;;;;;;27.33;25.10;;;7.10;99.90;;;;;;5390372;26;20015;-72
2024/04/11 05:11:39;;;;;;;27.33;25.23;;;7.10;99.90;;;;;;5328471;26;20266;-72
2024/04/11 05:14:09;;;;;;;25.67;24.05;;;7.20;99.90;;;;;;5339420;26;20010;-75
2024/04/11 05:16:36;;;;;;;28.85;25.67;;;7.30;99.90;;;;;;5396645;26;19999;-73
2024/04/11 05:19:07;;;;;;;28.23;24.92;;;7.40;99.90;;;;;;5384548;26;20023;-73
2024/04/11 05:21:39;;;;;;;26.02;23.95;;;7.50;99.90;;;;;;5361175;26;20630;-76
2024/04/11 05:24:09;;;;;;;25.60;23.65;;;7.60;99.90;;;;;;5354295;26;20009;-73
2024/04/11 05:26:37;;;;;;;25.85;23.98;;;7.80;99.90;;;;;;5380212;26;20032;-72
2024/04/11 05:29:07;;;;;;;26.38;24.13;;;7.80;99.90;;;;;;5393529;26;20450;-74
2024/04/11 05:31:37;;;;;;;26.15;24.45;;;7.80;99.90;;;;;;5376980;26;20001;-74
2024/04/11 05:34:07;;;;;;;28.55;26.42;;;7.80;99.90;;;;;;5319849;26;20001;-73
2024/04/11 05:36:39;;;;;;;26.63;24.73;;;7.80;99.90;;;;;;5350796;26;20014;-73
2024/04/11 05:39:14;;;;;;;27.60;25.65;;;7.80;99.90;;;;;;5327993;26;20075;-74
2024/04/11 05:41:46;;;;;;;;;;;7.90;99.90;;;;;;5317942;26;20005;-74
2024/04/11 05:44:15;;;;;;;26.95;25.13;;;8.00;99.90;;;;;;5351974;26;19932;-74
2024/04/11 05:46:43;;;;;;;28.42;26.33;;;8.00;99.90;;;;;;5332075;26;20023;-74
2024/04/11 05:49:11;;;;;;;28.58;26.67;;;8.10;99.90;;;;;;5346459;26;20020;-73
2024/04/11 05:51:39;;;;;;;27.85;25.63;;;8.10;99.90;;;;;;5372968;26;20547;-74
2024/04/11 05:54:07;;;;;;;30.60;28.10;;;8.20;99.90;;;;;;5384402;26;20070;-75
2024/04/11 05:56:37;;;;;;;32.60;30.48;;;8.30;99.90;;;;;;5379196;26;20003;-73
2024/04/11 05:59:06;;;;;;;37.30;35.00;;;8.40;99.90;;;;;;5375576;26;20656;-74
2024/04/11 06:01:36;;;;;;;37.35;35.03;;;8.40;99.90;;;;;;5357482;26;20535;-73
2024/04/11 06:04:06;;;;;;;34.97;32.67;;;8.60;99.90;;;;;;5341906;26;20059;-73
2024/04/11 06:06:34;;;;;;;38.25;35.75;;;8.70;99.90;;;;;;5340390;26;20343;-74
2024/04/11 06:09:02;;;;;;;35.80;33.67;;;8.80;99.90;;;;;;5328559;26;20018;-73
2024/04/11 06:11:31;;;;;;;35.53;33.63;;;9.00;99.90;;;;;;5353233;26;20851;-74
2024/04/11 06:13:59;;;;;;;37.38;35.13;;;9.10;99.90;;;;;;5371442;26;20191;-74
2024/04/11 06:16:27;;;;;;;37.45;35.25;;;9.20;99.90;;;;;;5392394;26;19999;-74
2024/04/11 06:18:56;;;;;;;37.50;35.30;;;9.40;99.90;;;;;;5391754;26;19999;-75
2024/04/11 06:21:32;;;;;;;38.00;35.53;;;9.50;99.90;;;;;;5367255;26;20023;-75
2024/04/11 06:24:00;;;;;;;38.55;36.05;;;9.60;99.90;;;;;;5315566;26;20027;-75
2024/04/11 06:26:33;;;;;;;36.40;34.40;;;9.70;99.90;;;;;;5365931;26;20028;-75
2024/04/11 06:29:01;;;;;;;37.08;34.70;;;9.90;99.90;;;;;;5376397;26;20017;-73
2024/04/11 06:31:30;;;;;;;40.10;37.55;;;9.90;99.90;;;;;;5371389;26;19999;-75
2024/04/11 06:34:02;;;;;;;37.72;35.03;;;10.00;99.90;;;;;;5386634;26;20000;-74
2024/04/11 06:36:32;;;;;;;37.20;34.80;;;10.00;99.90;;;;;;5386410;26;20577;-75
2024/04/11 06:39:01;;;;;;;39.35;36.70;;;10.10;99.90;;;;;;5390318;26;20081;-74
2024/04/11 06:41:28;;;;;;;40.78;38.05;;;10.20;99.90;;;;;;5399107;26;19995;-78
2024/04/11 06:43:55;;;;;;;30.83;28.77;;;10.30;99.90;;;;;;5393497;26;20700;-75
2024/04/11 06:46:34;;;;;;;31.10;28.80;;;10.30;99.90;;;;;;5364514;26;20003;-74
2024/04/11 06:49:02;;;;;;;31.80;29.50;;;10.30;99.90;;;;;;5340322;26;20074;-76
2024/04/11 06:51:34;;;;;;;32.70;29.75;;;10.30;99.90;;;;;;5377195;26;20006;-75
2024/04/11 06:54:04;;;;;;;31.60;29.13;;;10.30;99.90;;;;;;5403943;26;20419;-76
2024/04/11 06:56:32;;;;;;;30.70;28.60;;;10.40;99.90;;;;;;5394784;26;20006;-75
2024/04/11 06:59:01;;;;;;;32.15;29.60;;;10.40;99.90;;;;;;5400064;26;20018;-75
2024/04/11 07:01:28;;;;;;;31.42;29.10;;;10.50;99.90;;;;;;5380810;26;20024;-75
2024/04/11 07:03:59;;;;;;;33.53;30.75;;;10.60;99.90;;;;;;5396328;26;20014;-75
2024/04/11 07:06:29;;;;;;;30.00;28.05;;;10.70;99.90;;;;;;5392542;26;19995;-74
2024/04/11 07:08:58;;;;;;;29.20;26.88;;;10.90;99.90;;;;;;5377865;26;19999;-75
2024/04/11 07:11:40;;;;;;;30.15;27.58;;;11.00;99.90;;;;;;5383422;26;20886;-75
2024/04/11 07:14:20;;;;;;;30.65;28.25;;;11.20;99.90;;;;;;5390379;26;20000;-75
2024/04/11 07:16:52;;;;;;;30.65;28.23;;;11.40;99.90;;;;;;5380884;26;20007;-75
2024/04/11 07:19:20;;;;;;;32.72;30.33;;;11.60;99.90;;;;;;5379894;26;20018;-76
2024/04/11 07:21:48;;;;;;;31.65;29.55;;;11.80;99.90;;;;;;5335145;26;20087;-75
2024/04/11 07:24:15;;;;;;;32.28;30.08;;;12.00;99.90;;;;;;5357266;26;20350;-75
2024/04/11 07:26:42;;;;;;;30.30;27.98;;;11.90;99.90;;;;;;5361224;26;20036;-76
2024/04/11 07:29:10;;;;;;;29.58;27.58;;;11.90;99.90;;;;;;5324099;26;20008;-73
2024/04/11 07:31:41;;;;;;;28.67;26.77;;;11.80;99.90;;;;;;5413578;26;20003;-75
2024/04/11 07:34:09;;;;;;;29.75;27.75;;;11.80;99.90;;;;;;5397935;26;20014;-74
2024/04/11 07:36:39;;;;;;;30.98;28.05;;;11.90;99.90;;;;;;5376386;26;20210;-76
2024/04/11 07:39:13;;;;;;;30.55;28.00;;;11.90;99.90;;;;;;5360246;26;20020;-79
2024/04/11 07:41:48;;;;;;;30.98;28.13;;;11.80;99.90;;;;;;5347912;26;20000;-75
2024/04/11 07:44:17;;;;;;;29.53;27.40;;;11.80;99.90;;;;;;5348323;26;19996;-74
2024/04/11 07:46:46;;;;;;;31.08;28.50;;;11.80;99.90;;;;;;5356305;26;20012;-79
2024/04/11 07:49:35;;;;;;;29.30;27.05;;;11.80;99.90;;;;;;5362122;26;20711;-75
2024/04/11 07:52:04;;;;;;;29.77;27.52;;;11.80;99.90;;;;;;5326376;26;20004;-75
2024/04/11 07:54:33;;;;;;;30.40;28.00;;;11.70;99.90;;;;;;5326589;26;20658;-75
2024/04/11 07:57:12;;;;;;;30.90;28.58;;;11.70;99.90;;;;;;5331292;26;20060;-75
2024/04/11 07:59:41;;;;;;;31.65;28.58;;;11.80;99.90;;;;;;5330788;26;20516;-74
2024/04/11 08:02:10;;;;;;;31.13;28.80;;;11.90;99.90;;;;;;5366224;26;20018;-74
2024/04/11 08:04:37;;;;;;;29.23;27.10;;;11.90;99.90;;;;;;5399182;26;20784;-75
2024/04/11 08:07:04;;;;;;;30.02;27.73;;;12.00;99.90;;;;;;5432517;26;20103;-77
2024/04/11 08:09:44;;;;;;;29.10;27.15;;;11.90;99.90;;;;;;5402204;26;20011;-75
2024/04/11 08:12:13;;;;;;;28.98;27.02;;;11.90;99.90;;;;;;5368653;26;20718;-75
2024/04/11 08:14:41;;;;;;;28.80;26.90;;;12.00;99.90;;;;;;5389538;26;19999;-76
2024/04/11 08:17:13;;;;;;;30.65;28.30;;;12.00;99.90;;;;;;5372532;26;19995;-75
2024/04/11 08:19:42;;;;;;;29.47;27.03;;;12.00;99.90;;;;;;5395556;26;20004;-75
2024/04/11 08:22:24;;;;;;;29.33;27.13;;;12.00;99.90;;;;;;5384823;26;20568;-75
2024/04/11 08:24:53;;;;;;;29.52;27.63;;;12.10;99.90;;;;;;5392189;26;19999;-76
2024/04/11 08:27:21;;;;;;;29.23;27.02;;;12.10;99.90;;;;;;5399560;26;21070;-75
2024/04/11 08:29:48;;;;;;;29.75;27.25;;;12.10;99.90;;;;;;5383622;26;20008;-77
2024/04/11 08:32:15;;;;;;;30.52;28.15;;;12.00;99.90;;;;;;5351167;26;20249;-75
2024/04/11 08:34:42;;;;;;;30.33;27.92;;;12.00;99.90;;;;;;5349713;26;20052;-75
2024/04/11 08:37:11;;;;;;;29.67;27.63;;;12.10;99.90;;;;;;5377094;26;20003;-74
2024/04/11 08:39:38;;;;;;;28.67;26.77;;;12.20;99.90;;;;;;5391543;26;20021;-75
2024/04/11 08:42:08;;;;;;;29.50;27.25;;;12.10;99.90;;;;;;5390354;26;19995;-80
2024/04/11 08:44:36;;;;;;;30.75;28.17;;;12.20;99.90;;;;;;5378730;26;20015;-77
2024/04/11 08:47:06;;;;;;;30.17;27.48;;;12.20;99.90;;;;;;5390555;26;20581;-75
2024/04/11 08:49:33;;;;;;;28.98;26.95;;;12.30;99.90;;;;;;5369459;26;20043;-75
2024/04/11 08:52:05;;;;;;;30.08;27.15;;;12.40;99.90;;;;;;5390583;26;20000;-75
2024/04/11 08:54:34;;;;;;;30.08;27.73;;;12.40;99.90;;;;;;5373438;26;20194;-77
2024/04/11 08:57:01;;;;;;;29.52;27.25;;;12.40;99.90;;;;;;5385473;26;20007;-75
2024/04/11 08:59:29;;;;;;;29.63;26.92;;;12.40;99.90;;;;;;5381126;26;20007;-75
2024/04/11 09:01:57;;;;;;;29.50;27.33;;;12.50;99.90;;;;;;5354545;26;20000;-76
2024/04/11 09:04:24;;;;;;;28.25;26.15;;;12.50;99.90;;;;;;5365019;26;20095;-75
2024/04/11 09:06:54;;;;;;;29.35;27.02;;;12.50;99.90;;;;;;5369584;26;20004;-78
2024/04/11 09:09:23;;;;;;;29.23;26.85;;;12.50;99.90;;;;;;5367240;26;21011;-73
2024/04/11 09:11:52;;;;;;;29.10;26.70;;;12.40;99.90;;;;;;5368762;26;20004;-75
2024/04/11 09:14:20;;;;;;;28.55;26.42;;;12.40;99.90;;;;;;5374155;26;20021;-75
2024/04/11 09:17:00;;;;;;;28.98;26.60;;;12.50;99.90;;;;;;5393282;26;20010;-75
2024/04/11 09:19:32;;;;;;;29.05;26.65;;;12.60;99.90;;;;;;5382537;26;20027;-74
2024/04/11 09:21:59;;;;;;;29.10;26.88;;;12.60;99.90;;;;;;5320158;26;20030;-75
2024/04/11 09:24:28;;;;;;;27.48;25.45;;;12.60;99.90;;;;;;5384482;26;20007;-75
2024/04/11 09:26:59;;;;;;;29.60;27.42;;;12.60;99.90;;;;;;5388920;26;20073;-76
2024/04/11 09:29:27;;;;;;;29.02;26.35;;;12.60;99.90;;;;;;5344689;26;20015;-77
2024/04/11 09:31:59;;;;;;;29.10;26.23;;;12.60;99.90;;;;;;5385688;26;20017;-75
2024/04/11 09:34:30;;;;;;;29.45;27.27;;;12.60;99.90;;;;;;5351942;26;20663;-75
2024/04/11 09:36:59;;;;;;;29.17;26.98;;;12.60;99.90;;;;;;5381934;26;20000;-75
2024/04/11 09:39:49;;;;;;;29.08;26.58;;;12.60;99.90;;;;;;5346065;26;19999;-74
2024/04/11 09:42:19;;;;;;;30.15;27.17;;;12.60;99.90;;;;;;5378436;26;20088;-76
2024/04/11 09:44:52;;;;;;;28.42;26.33;;;12.70;99.90;;;;;;5378883;26;20043;-76
2024/04/11 09:47:31;;;;;;;29.45;26.90;;;12.70;99.90;;;;;;5382781;26;20346;-75
2024/04/11 09:50:04;;;;;;;28.42;26.08;;;12.70;99.90;;;;;;5391005;26;20515;-75
2024/04/11 09:52:41;;;;;;;29.60;27.50;;;12.70;99.90;;;;;;5343569;26;20012;-75
2024/04/11 09:55:09;;;;;;;28.67;26.48;;;12.80;99.90;;;;;;5349337;26;20218;-75
2024/04/11 09:57:41;;;;;;;28.35;26.17;;;12.80;99.90;;;;;;5377843;26;20000;-76
2024/04/11 10:00:22;;;;;;;30.27;27.35;;;12.80;99.90;;;;;;5371565;26;20003;-75
2024/04/11 10:02:52;;;;;;;28.83;26.63;;;12.80;99.90;;;;;;5378542;26;20007;-76
2024/04/11 10:05:23;;;;;;;27.98;25.88;;;12.70;99.90;;;;;;5356943;26;19995;-75
2024/04/11 10:07:58;;;;;;;29.88;26.75;;;12.80;99.90;;;;;;5380350;26;20000;-77
2024/04/11 10:10:29;;;;;;;31.65;29.10;;;12.70;99.90;;;;;;5380390;26;21657;-74
2024/04/11 10:13:04;;;;;;;30.85;28.25;;;12.80;99.90;;;;;;5399660;26;20675;-75
2024/04/11 10:15:33;;;;;;;31.00;28.55;;;12.90;99.90;;;;;;5375562;26;20022;-75
2024/04/11 10:18:09;;;;;;;29.90;27.52;;;12.90;99.90;;;;;;5389333;26;20008;-73
2024/04/11 10:20:43;;;;;;;34.97;31.27;;;13.00;99.90;;;;;;5383160;26;20596;-73
2024/04/11 10:23:15;;;;;;;31.02;28.27;;;13.00;99.90;;;;;;5347916;26;20000;-73
2024/04/11 10:25:49;;;;;;;32.30;29.20;;;13.00;99.90;;;;;;5387777;26;20009;-72
2024/04/11 10:28:18;;;;;;;32.38;29.35;;;13.10;99.90;;;;;;5338428;26;20179;-73
2024/04/11 10:30:55;;;;;;;29.27;26.92;;;13.20;99.90;;;;;;5376621;26;20001;-73
2024/04/11 10:33:29;;;;;;;31.45;28.90;;;13.20;99.90;;;;;;5357233;26;20015;-74
2024/04/11 10:35:57;;;;;;;31.33;28.73;;;13.30;99.90;;;;;;5356674;26;20000;-74
2024/04/11 10:38:28;;;;;;;33.67;30.65;;;13.50;99.90;;;;;;5377641;26;20126;-74
2024/04/11 10:40:56;;;;;;;30.70;28.00;;;13.60;99.90;;;;;;5414726;26;20522;-75
2024/04/11 10:43:27;;;;;;;31.73;29.08;;;13.80;99.90;;;;;;5376279;26;20003;-73
2024/04/11 10:45:57;;;;;;;30.05;27.58;;;13.90;99.90;;;;;;5383733;26;20003;-75
2024/04/11 10:48:24;;;;;;;30.15;27.27;;;14.00;99.90;;;;;;5355334;26;20008;-76
2024/04/11 10:50:52;;;;;;;30.20;27.98;;;13.90;99.90;;;;;;5359890;26;20008;-74
2024/04/11 10:53:20;;;;;;;31.17;28.45;;;13.90;99.90;;;;;;5381531;26;20385;-74
2024/04/11 10:55:49;;;;;;;29.80;27.38;;;13.90;99.90;;;;;;5385962;26;20017;-76
2024/04/11 10:58:22;;;;;;;31.13;28.70;;;13.90;99.90;;;;;;5381200;26;20099;-76
2024/04/11 11:03:57;;;;;;;29.58;27.25;;;13.80;99.90;;;;;;5376986;26;20011;-74
2024/04/11 11:06:24;;;;;;;29.90;27.60;;;13.80;99.90;;;;;;5429446;26;20068;-74
2024/04/11 11:09:10;;;;;;;28.42;25.92;;;14.00;99.90;;;;;;5380725;26;20449;-74
2024/04/11 11:11:43;;;;;;;29.88;27.52;;;14.00;99.90;;;;;;5379104;26;20006;-75
2024/04/11 11:14:20;;;;;;;29.20;26.55;;;14.00;99.90;;;;;;5367527;26;20003;-73
2024/04/11 11:16:50;;;;;;;28.25;26.25;;;14.10;99.90;;;;;;5391120;26;20581;-74
2024/04/11 11:19:17;;;;;;;28.25;26.15;;;14.10;99.90;;;;;;5372064;26;20008;-74
2024/04/11 11:21:50;;;;;;;29.02;26.85;;;14.20;99.90;;;;;;5376317;26;20014;-73
2024/04/11 11:24:23;;;;;;;30.45;27.90;;;14.30;99.90;;;;;;5382259;26;20035;-73
2024/04/11 11:26:58;;;;;;;31.52;29.45;;;14.40;99.90;;;;;;5349382;26;20011;-73
2024/04/11 11:29:27;;;;;;;31.80;29.55;;;14.50;99.90;;;;;;5316959;26;20034;-74
2024/04/11 11:32:02;;;;;;;33.00;29.98;;;14.50;99.90;;;;;;5343566;26;20015;-75
2024/04/11 11:34:31;;;;;;;;;;;14.50;99.90;;;;;;5371342;26;20109;-73
2024/04/11 11:37:01;;;;;;;32.40;30.02;;;14.70;99.90;;;;;;5362382;26;19926;-75
2024/04/11 11:39:33;;;;;;;31.15;29.13;;;14.80;99.90;;;;;;5350792;26;20013;-73
2024/04/11 11:42:20;;;;;;;31.60;28.95;;;14.90;99.90;;;;;;5339154;26;20422;-74
2024/04/11 11:45:27;;;;;;;30.17;27.85;;;15.10;99.90;;;;;;5351163;26;20120;-75
2024/04/11 11:47:49;;;;;;;31.50;29.23;;;15.30;99.90;;;;;;5347492;26;20000;-75
2024/04/11 11:50:21;;;;;;;34.70;32.28;;;15.30;99.90;;;;;;5352284;26;20011;-76
2024/04/11 11:52:50;;;;;;;31.25;29.05;;;15.20;99.90;;;;;;5380653;26;20040;-74
2024/04/11 11:55:25;;;;;;;29.83;27.92;;;15.40;99.90;;;;;;5359287;26;20039;-75
2024/04/11 11:58:02;;;;;;;28.88;26.98;;;15.60;99.90;;;;;;5400360;26;20004;-76
2024/04/11 12:00:49;;;;;;;30.00;28.10;;;15.60;99.90;;;;;;5429385;26;20012;-76
2024/04/11 12:03:21;;;;;;;30.73;28.45;;;15.40;99.90;;;;;;5393959;26;20017;-75
2024/04/11 12:06:00;;;;;;;30.38;28.38;;;15.20;99.90;;;;;;5357253;26;20007;-74
2024/04/11 12:08:32;;;;;;;29.40;27.42;;;15.20;99.90;;;;;;5381295;26;19999;-75
2024/04/11 12:13:34;;;;;;;29.50;27.50;;;15.50;99.90;;;;;;5379322;26;20004;-74
2024/04/11 12:16:06;;;;;;;30.60;28.70;;;15.70;99.90;;;;;;5408034;26;20549;-75
2024/04/11 12:18:33;;;;;;;31.27;29.27;;;15.80;99.90;;;;;;5382304;26;20058;-74
2024/04/11 12:21:02;;;;;;;29.70;28.00;;;15.70;99.90;;;;;;5353952;26;19996;-75
2024/04/11 12:23:34;;;;;;;31.73;29.45;;;15.80;99.90;;;;;;5337897;26;20005;-75
2024/04/11 12:26:03;;;;;;;29.92;27.77;;;15.90;99.90;;;;;;5349164;26;20078;-76
2024/04/11 12:28:31;;;;;;;29.80;27.65;;;15.80;99.90;;;;;;5338402;26;20127;-75
2024/04/11 12:31:01;;;;;;;29.33;27.42;;;15.70;99.90;;;;;;5318325;26;20066;-76
2024/04/11 12:33:43;;;;;;;31.40;29.20;;;15.90;99.90;;;;;;5331433;26;20032;-75
2024/04/11 12:39:21;;;;;;;31.65;29.40;;;15.60;99.90;;;;;;5328138;26;20004;-76
2024/04/11 12:41:50;;;;;;;30.48;28.40;;;15.40;99.90;;;;;;5327107;26;20023;-75
2024/04/11 12:44:24;;;;;;;31.25;29.23;;;15.20;99.90;;;;;;5311091;26;20040;-77
2024/04/11 12:46:56;;;;;;;30.38;28.35;;;15.40;99.90;;;;;;5371865;26;20259;-75
2024/04/11 12:49:29;;;;;;;28.35;26.42;;;15.50;99.90;;;;;;5389024;26;20079;-74
2024/04/11 12:52:00;;;;;;;28.90;26.90;;;15.60;99.90;;;;;;5377892;26;20087;-74
2024/04/11 12:54:28;;;;;;;27.73;25.98;;;15.60;99.90;;;;;;5367890;26;20023;-77
2024/04/11 12:57:04;;;;;;;32.13;29.70;;;15.60;99.90;;;;;;5352892;26;20014;-75